Gravois Mills, MO (65037)

6:18 PM CST on December 22, 2014 (GMT -0600)
Beginning of Indian Creek | Change Station
CLOSE
Current Station
Personal Weather Station
Location: Barnett, MO
Elevation: 679 ft
Nearby Weather Stations

Elev 679 ft 38.30 °N, 92.73 °W | Updated 2 minutes ago

Rain
Rain
48.0 °F
Feels Like 48 °F
N
2.7
Wind Variable Wind from West

Today
High -- | Low -- °F
--% Chance of Precip.
Yesterday
High -- | Low -- °F
Precip. -- in
7:25 AM 4:55 PM
New Moon, 1% visible
Pressure 29.49 in
Visibility 7.0 miles
Clouds Scattered Clouds 1200 ft
Scattered Clouds 1800 ft
Overcast 2600 ft
Windchill 48 °F
Dew Point 48 °F
Humidity 99%
Rainfall 0.17 in
Snow Depth Not available.
UV 0 out of 12
Pollen 1.70 out of 12
Air Quality Not available.
Flu Activity Not available.
METAR KAIZ 222355Z AUTO 18006KT 7SM SCT012 SCT018 OVC026 09/07 A2949 RMK AO1 P0003 60006 10090 20080 400900050 57003

More Conditions Fewer Conditions

Pressure 29.49 in
Visibility 7.0 miles
Clouds Scattered Clouds 1200 ft
Scattered Clouds 1800 ft
Overcast 2600 ft
Windchill 48 °F
Dew Point 48 °F
Humidity 99%
Rainfall 0.17 in
Snow Depth Not available.
UV 0 out of 12
Pollen 1.70 out of 12
Air Quality Not available.
Flu Activity Not available.
METAR KAIZ 222355Z AUTO 18006KT 7SM SCT012 SCT018 OVC026 09/07 A2949 RMK AO1 P0003 60006 10090 20080 400900050 57003

More Conditions Fewer Conditions

10-Day Weather Forecast

Almanac

Astronomy

Dec. 22, 2014 Rise Set
Actual Time
Civil Twilight
Nautical Twilight
Astronomical Twilight
Moon
Length of Visible Light
Length of Day
Tomorrow will be .
, % of the Moon is Illuminated

Today's Extremes

State Highs State Lows

Community

WunderPhotos

Upload Photos

1,779,736 photos uploaded!

WunderBlogs® & News

Nearby

Air Quality

  Air Quality AQ Index Pollutant
Not available.

Snow Depth

Station Depth Elevation

Earthquake Activity

City Distance Mag. Time & Date
Minimum magnitude displayed is 2.5.

Coastal Water Temperatures

Place Temperature

Nearby Weather Stations